createdAt,value
2023-03-20T00:00:18.929Z,19.88294314381271
2023-03-20T00:06:37.824Z,17.68896321070234
2023-03-20T00:12:56.701Z,21.91973244147157
2023-03-20T00:19:15.512Z,21.77257525083612
2023-03-20T00:26:12.964Z,21.752508361204015
2023-03-20T00:32:32.577Z,19.474916387959865
2023-03-20T00:38:51.851Z,21.123745819397993
2023-03-20T00:47:32.752Z,22.618729096989966
2023-03-20T00:55:41.786Z,22.678929765886288
2023-03-20T01:02:01.573Z,20.51839464882943
2023-03-20T01:08:20.595Z,24.401337792642142
2023-03-20T01:22:10.585Z,20.789297658862875
2023-03-20T01:30:59.037Z,15.488294314381271
2023-03-20T01:37:18.185Z,14.578595317725753
2023-03-20T01:43:36.919Z,14.351170568561873
2023-03-20T01:51:26.010Z,9.431438127090301
2023-03-20T01:57:54.237Z,3.5150501672240804
2023-03-20T02:04:13.165Z,4.2207357859531776
2023-03-20T02:10:32.037Z,3.3377926421404682
2023-03-20T02:16:53.732Z,3.8729096989966556
2023-03-20T02:23:11.828Z,4.133779264214047
2023-03-20T02:35:54.938Z,2.0535117056856187
2023-03-20T02:42:13.489Z,3.4347826086956523
2023-03-20T02:48:32.255Z,3.0033444816053514
2023-03-20T02:54:50.679Z,2.491638795986622
2023-03-20T03:01:08.827Z,2.0334448160535117
2023-03-20T03:07:27.470Z,2.6655518394648827
2023-03-20T03:18:22.105Z,1.374581939799331
2023-03-20T03:24:42.052Z,1.5518394648829432
2023-03-20T03:31:01.339Z,2.117056856187291
2023-03-20T03:37:20.306Z,1.0
2023-03-20T03:46:50.932Z,2.488294314381271
2023-03-20T03:53:09.862Z,2.234113712374582
2023-03-20T03:59:28.605Z,2.739130434782609
2023-03-20T04:05:47.261Z,3.6956521739130435
2023-03-20T04:12:06.307Z,2.6387959866220734
2023-03-20T04:18:25.918Z,2.6187290969899664
2023-03-20T04:30:41.064Z,4.214046822742475
2023-03-20T04:36:59.955Z,4.431438127090301
2023-03-20T04:43:19.505Z,3.1036789297658864
2023-03-20T04:49:38.429Z,5.555183946488294
2023-03-20T05:07:27.723Z,3.8762541806020065
2023-03-20T05:13:46.878Z,4.481605351170568
2023-03-20T05:20:05.798Z,5.31438127090301
2023-03-20T05:26:25.329Z,4.3879598662207355
2023-03-20T05:32:44.650Z,5.558528428093646
2023-03-20T05:39:03.633Z,4.789297658862877
2023-03-20T05:47:21.177Z,5.59866220735786
2023-03-20T05:53:40.057Z,4.6521739130434785
2023-03-20T06:00:04.049Z,5.7157190635451505
2023-03-20T06:06:54.808Z,6.896321070234114
2023-03-20T06:19:26.850Z,4.464882943143813
2023-03-20T06:25:49.382Z,5.872909698996655
2023-03-20T06:32:12.816Z,5.334448160535117
2023-03-20T06:38:48.860Z,5.993311036789297
2023-03-20T06:45:11.990Z,3.8862876254180603
2023-03-20T06:51:35.926Z,4.518394648829432
2023-03-20T06:58:01.036Z,4.013377926421405
2023-03-20T07:04:24.795Z,3.3277591973244145
2023-03-20T07:10:46.922Z,3.237458193979933
2023-03-20T07:17:09.505Z,4.297658862876254
2023-03-20T07:23:32.911Z,4.839464882943144
2023-03-20T07:38:37.004Z,5.157190635451505
2023-03-20T07:50:43.278Z,4.153846153846154
2023-03-20T07:57:04.633Z,4.8193979933110365
2023-03-20T08:15:41.529Z,4.130434782608695
2023-03-20T08:22:03.786Z,3.05685618729097
2023-03-20T08:32:16.035Z,4.404682274247492
2023-03-20T08:41:13.497Z,4.11371237458194
2023-03-20T08:47:36.008Z,3.548494983277592
2023-03-20T08:53:58.097Z,3.1337792642140467
2023-03-20T09:00:21.160Z,4.7558528428093645
2023-03-20T09:06:43.837Z,3.745819397993311
2023-03-20T09:13:25.349Z,4.591973244147157
2023-03-20T09:19:48.861Z,2.5953177257525084
2023-03-20T09:30:35.882Z,3.62876254180602
2023-03-20T09:36:58.328Z,4.662207357859532
2023-03-20T09:48:18.629Z,3.769230769230769
2023-03-20T09:54:53.163Z,3.531772575250836
2023-03-20T10:01:18.135Z,2.4347826086956523
2023-03-20T10:07:40.420Z,5.207357859531773
2023-03-20T10:14:02.578Z,4.79933110367893
2023-03-20T10:20:24.696Z,2.74247491638796
2023-03-20T10:28:03.119Z,3.7759197324414715
2023-03-20T10:34:37.386Z,1.9364548494983278
2023-03-20T10:40:59.005Z,2.42809364548495
2023-03-20T10:47:20.656Z,2.789297658862876
2023-03-20T10:53:42.572Z,3.197324414715719
2023-03-20T11:00:05.097Z,2.923076923076923
2023-03-20T11:06:27.411Z,1.6923076923076923
2023-03-20T11:12:49.315Z,2.688963210702341
2023-03-20T11:19:10.989Z,1.645484949832776
2023-03-20T11:25:33.532Z,1.9431438127090301
2023-03-20T11:34:55.256Z,1.8227424749163879
2023-03-20T11:53:01.119Z,2.3946488294314383
2023-03-20T11:59:23.962Z,3.096989966555184
2023-03-20T12:05:45.546Z,2.2842809364548495
2023-03-20T12:25:16.295Z,2.234113712374582
2023-03-20T12:31:38.915Z,1.842809364548495
2023-03-20T12:38:00.854Z,2.7123745819397995
2023-03-20T12:44:23.760Z,3.8929765886287626
2023-03-20T12:59:16.340Z,3.0836120401337794
2023-03-20T13:05:38.551Z,3.0903010033444818
2023-03-20T13:12:01.065Z,3.4983277591973243
2023-03-20T13:18:22.741Z,4.046822742474917
2023-03-20T13:24:44.777Z,2.508361204013378
2023-03-20T13:31:06.433Z,3.1638795986622075
2023-03-20T13:43:16.382Z,3.9264214046822743
2023-03-20T13:49:39.324Z,2.4214046822742477
2023-03-20T13:59:22.970Z,3.9531772575250836
2023-03-20T14:05:45.609Z,4.1438127090301
2023-03-20T14:14:39.327Z,2.9063545150501673
2023-03-20T14:21:03.050Z,2.765886287625418
2023-03-20T14:30:46.937Z,3.9163879598662206
2023-03-20T14:38:04.567Z,2.6387959866220734
2023-03-20T14:44:27.128Z,2.5819397993311037
2023-03-20T14:50:49.100Z,4.608695652173913
2023-03-20T14:57:10.955Z,3.1270903010033444
2023-03-20T15:03:33.420Z,3.4949832775919734
2023-03-20T15:09:55.224Z,2.4381270903010033
2023-03-20T15:16:16.699Z,3.020066889632107
2023-03-20T15:22:39.334Z,3.471571906354515
2023-03-20T15:29:01.250Z,2.608695652173913
2023-03-20T15:35:23.592Z,2.130434782608696
2023-03-20T15:41:45.647Z,2.8260869565217392
2023-03-20T15:48:07.410Z,1.9331103678929766
2023-03-20T16:00:59.891Z,2.5250836120401337
2023-03-20T16:07:22.853Z,1.9331103678929766
2023-03-20T16:19:53.607Z,3.709030100334448
2023-03-20T16:29:47.125Z,2.8963210702341136
2023-03-20T16:36:13.512Z,3.4548494983277593
2023-03-20T16:42:50.469Z,3.668896321070234
2023-03-20T16:49:12.145Z,2.5652173913043477
2023-03-20T17:04:47.008Z,1.882943143812709
2023-03-20T17:11:09.139Z,2.8729096989966556
2023-03-20T17:17:30.309Z,3.0535117056856187
2023-03-20T17:23:49.349Z,3.0735785953177257
2023-03-20T17:30:11.219Z,3.0668896321070234
2023-03-20T17:36:31.224Z,2.869565217391304
2023-03-20T17:42:49.969Z,2.608695652173913
2023-03-20T17:53:12.694Z,2.016722408026756
2023-03-20T17:59:32.371Z,2.1337792642140467
2023-03-20T18:05:52.112Z,2.688963210702341
2023-03-20T18:12:14.983Z,1.3244147157190636
2023-03-20T18:18:36.100Z,2.2474916387959865
2023-03-20T18:24:55.621Z,2.3846153846153846
2023-03-20T18:36:06.739Z,2.5652173913043477
2023-03-20T18:42:25.922Z,2.648829431438127
2023-03-20T18:48:44.740Z,2.6354515050167224
2023-03-20T19:01:42.247Z,1.6321070234113713
2023-03-20T19:08:02.311Z,3.6187290969899664
2023-03-20T19:14:21.555Z,2.4615384615384617
2023-03-20T19:20:40.610Z,1.725752508361204
2023-03-20T19:27:17.771Z,3.230769230769231
2023-03-20T19:33:38.323Z,2.7725752508361206
2023-03-20T19:46:09.257Z,2.1137123745819397
2023-03-20T19:52:29.485Z,3.3344481605351173
2023-03-20T19:58:48.752Z,3.448160535117057
2023-03-20T20:05:09.020Z,3.4448160535117056
2023-03-20T20:11:28.399Z,3.548494983277592
2023-03-20T20:23:21.229Z,3.6454849498327757
2023-03-20T20:44:33.898Z,2.725752508361204
2023-03-20T20:51:48.332Z,2.963210702341137
2023-03-20T21:08:00.161Z,4.4280936454849495
2023-03-20T21:14:22.052Z,5.548494983277592
2023-03-20T21:20:43.671Z,6.682274247491639
2023-03-20T21:28:24.580Z,7.913043478260869
2023-03-20T21:34:44.598Z,7.046822742474917
2023-03-20T21:49:24.135Z,9.926421404682275
2023-03-20T21:57:27.907Z,8.715719063545151
2023-03-20T22:04:54.965Z,9.635451505016722
2023-03-20T22:28:33.277Z,10.812709030100335
2023-03-20T22:40:39.336Z,11.882943143812708
2023-03-20T22:47:09.196Z,11.816053511705686
2023-03-20T22:59:43.556Z,9.929765886287626
2023-03-20T23:09:18.161Z,10.153846153846153
2023-03-20T23:21:52.391Z,9.585284280936454
2023-03-20T23:28:12.048Z,11.85953177257525
2023-03-20T23:34:31.487Z,9.785953177257525
2023-03-20T23:43:14.157Z,9.25752508361204
2023-03-20T23:49:34.971Z,9.381270903010034
